طوكيو, اليابان

01:18 AM JST on دسمبر 19, 2014 (GMT +0900)
Tokyo (Haneda) International | Change Station
CLOSE
Current Station
Airport
Location: Tokyo,
Elevation: 26 ft
Nearby Weather Stations

Elev 26 ft 35.55 °N, 139.78 °E | Updated 18 minutes ago

Clear
صافية
39 °F
Feels Like 32 °F
N
10
ريح متغير ريح from WNW

هذا اليوم
High -- | Low -- °F
--% Chance of Precip.
Yesterday
High -- | Low -- °F
Precip. -- في
6:45 AM 4:30 PM
الهلال الأخير, 13% visible
الضغط 30.27 في
وضوح الرؤية -9999.0 أميال
سحابات
رياح باردة 32 °F
نقطة الندى 16 °F
الرطوبة 39%
Rainfall 0.00 في
عمق الثلج Not available.
الأشعة فوق البنفسجية Not available.
Pollen Not available.
جودة الهواء Not available.
Flu Activity Not available.
METAR RJTT 181600Z 30009KT CAVOK 04/M09 Q1025 NOSIG RMK A3028

More Conditions Fewer Conditions

الضغط 30.27 في
وضوح الرؤية -9999.0 أميال
سحابات
رياح باردة 32 °F
نقطة الندى 16 °F
الرطوبة 39%
Rainfall 0.00 في
عمق الثلج Not available.
الأشعة فوق البنفسجية Not available.
Pollen Not available.
جودة الهواء Not available.
Flu Activity Not available.
METAR RJTT 181600Z 30009KT CAVOK 04/M09 Q1025 NOSIG RMK A3028

More Conditions Fewer Conditions

10-Day Weather Forecast

Almanac

علم الفلك

Dec. 19, 2014 Rise Set
Actual Time
Civil Twilight
Nautical Twilight
Astronomical Twilight
قمر
Length Of Visible Light
طول الیوم
Tomorrow will be .
, % of the Moon is Illuminated

Today's Extremes

Country Highs Country Lows

Community

WunderPhotos

Upload Photos

1,778,952 photos uploaded!

WunderBlogs® & News

Nearby

جودة الهواء

  جودة الهواء AQ Index Pollutant
Not available.

عمق الثلج

Station Depth Elevation

Earthquake Activity

City Distance Mag. Time & Date
Minimum magnitude displayed is 2.5.

Coastal Water Temperatures

مكان درجات الحرارة

Nearby Weather Stations